Terminal Aerodrome Forecast
Issued by NWS

Current Version | Previous Version | Text Only | Print | Product List | Glossary On
Versions: 1 2 3 4 5 6 7 8 9 10 11 12 13 14 15 16
816
FTUS43 KMQT 071139
TAFSAW
TAF
KSAW 071139Z 0712/0812 20011KT 3SM -SN OVC008
     FM071600 21008KT P6SM OVC012
     FM080300 21004KT 4SM -SN BR OVC008
     FM080800 30007KT 2SM -SN BR OVC005=

USA.gov is the U.S. government's official web portal to all federal, state and local government web resources and services.